.
WxDataArchive / Data Records for 2010-05-09
2010-05-08 May 2010 2010-05-10

Data Records for Sunday, 09 May 2010

Time	Temp	Chill	HIndex	Humid	Dewpt	 Wind 	HiWind	WindDir	Rain 	Barom 
-----	----	-----	------	-----	-----	------	------	-------	-----	----- 
00:00	43.1	43.1	43.1	76	36.1	1	3	338	0.00	30.204 
00:05	43.1	43.1	43.1	76	36.1	0	2	338	0.00	30.204 
00:10	43.1	43.1	43.1	76	36.1	0	2	338	0.00	30.204 
00:15	42.9	42.9	42.9	77	36.2	0	1	338	0.00	30.206 
00:20	42.6	42.6	42.6	77	35.9	0	2	338	0.00	30.206 
00:25	42.5	42.5	42.5	78	36.1	0	2	338	0.00	30.206 
00:30	42.3	42.3	42.3	80	36.6	0	2	338	0.00	30.207 
00:35	42.2	42.2	42.2	80	36.5	0	1	338	0.00	30.207 
00:40	42.1	42.1	42.1	81	36.7	0	1	338	0.00	30.207 
00:45	41.9	41.9	41.9	81	36.5	0	1	338	0.00	30.211 
00:50	41.8	41.8	41.8	82	36.7	0	1	338	0.00	30.211 
00:55	41.6	41.6	41.6	83	36.8	0	1	338	0.00	30.211 
01:00	41.6	41.6	41.6	83	36.8	0	1	338	0.00	30.215 
01:05	41.6	41.6	41.6	84	37.1	0	2	338	0.00	30.215 
01:10	41.5	41.5	41.5	84	37.0	0	1	338	0.00	30.215 
01:15	41.5	41.5	41.5	84	37.0	0	1	338	0.00	30.215 
01:20	41.5	41.5	41.5	84	37.0	0	2	338	0.00	30.215 
01:25	41.3	41.3	41.3	85	37.1	0	1	338	0.00	30.215 
01:30	41.3	41.3	41.3	85	37.1	0	2	338	0.00	30.216 
01:35	41.3	41.3	41.3	85	37.1	0	1	338	0.00	30.216 
01:40	41.5	41.5	41.5	85	37.3	0	2	338	0.00	30.216 
01:45	41.6	41.6	41.6	85	37.4	0	2	338	0.00	30.218 
01:50	41.8	41.8	41.8	85	37.6	0	2	338	0.00	30.218 
01:55	41.8	41.8	41.8	85	37.6	0	1	338	0.00	30.218 
02:00	41.6	41.6	41.6	84	37.1	0	2	338	0.00	30.218 
02:05	41.6	41.6	41.6	84	37.1	0	1	338	0.00	30.218 
02:10	41.5	41.5	41.5	84	37.0	0	1	338	0.00	30.218 
02:15	41.3	41.3	41.3	84	36.8	0	1	338	0.00	30.218 
02:20	41.2	41.2	41.2	85	37.0	0	1	338	0.00	30.218 
02:25	41.1	41.1	41.1	85	36.9	0	1	338	0.00	30.218 
02:30	41.1	41.1	41.1	85	36.9	0	2	338	0.00	30.220 
02:35	40.9	40.9	40.9	85	36.7	0	1	338	0.00	30.220 
02:40	40.9	40.9	40.9	85	36.7	0	0	---	0.00	30.220 
02:45	40.9	40.9	40.9	85	36.7	0	0	---	0.00	30.219 
02:50	41.1	41.1	41.1	85	36.9	0	0	---	0.00	30.219 
02:55	40.9	40.9	40.9	85	36.7	0	0	---	0.00	30.219 
03:00	40.9	40.9	40.9	86	37.0	0	0	---	0.00	30.219 
03:05	40.9	40.9	40.9	86	37.0	0	0	---	0.00	30.219 
03:10	40.8	40.8	40.8	86	36.9	0	0	---	0.00	30.219 
03:15	40.6	40.6	40.6	86	36.7	0	0	---	0.00	30.221 
03:20	40.5	40.5	40.5	86	36.6	0	0	---	0.00	30.221 
03:25	40.3	40.3	40.3	86	36.5	0	0	---	0.00	30.221 
03:30	40.1	40.1	40.1	86	36.3	0	0	---	0.00	30.225 
03:35	39.9	39.9	39.9	86	36.1	0	0	---	0.00	30.225 
03:40	39.6	39.6	39.6	86	35.8	0	0	---	0.00	30.225 
03:45	39.5	39.5	39.5	87	36.0	0	0	---	0.00	30.228 
03:50	39.2	39.2	39.2	87	35.7	0	0	---	0.00	30.228 
03:55	38.9	38.9	38.9	87	35.4	0	0	---	0.00	30.228 
04:00	38.8	38.8	38.8	87	35.3	0	0	---	0.00	30.235 
04:05	38.5	38.5	38.5	87	35.0	0	0	---	0.00	30.235 
04:10	38.3	38.3	38.3	88	35.1	0	0	---	0.00	30.235 
04:15	38.2	38.2	38.2	88	35.0	0	0	---	0.00	30.240 
04:20	37.9	37.9	37.9	88	34.7	0	0	---	0.00	30.240 
04:25	37.8	37.8	37.8	88	34.6	0	0	---	0.00	30.240 
04:30	37.6	37.6	37.6	88	34.4	0	0	---	0.00	30.241 
04:35	37.6	37.6	37.6	89	34.7	0	0	---	0.00	30.241 
04:40	37.6	37.6	37.6	89	34.7	0	0	---	0.00	30.241 
04:45	37.6	37.6	37.6	90	34.9	0	0	---	0.00	30.248 
04:50	37.8	37.8	37.8	90	35.1	0	0	---	0.00	30.248 
04:55	37.8	37.8	37.8	90	35.1	0	0	---	0.00	30.248 
05:00	37.8	37.8	37.8	91	35.4	0	0	---	0.00	30.254 
05:05	37.6	37.6	37.6	91	35.2	0	0	---	0.00	30.254 
05:10	37.8	37.8	37.8	91	35.4	0	1	338	0.00	30.254 
05:15	37.8	37.8	37.8	91	35.4	0	0	---	0.00	30.255 
05:20	37.8	37.8	37.8	91	35.4	0	0	---	0.00	30.255 
05:25	37.8	37.8	37.8	91	35.4	0	0	---	0.00	30.255 
05:30	37.6	37.6	37.6	91	35.2	0	0	---	0.00	30.256 
05:35	37.6	37.6	37.6	91	35.2	0	0	---	0.00	30.256 
05:40	37.6	37.6	37.6	91	35.2	0	0	---	0.00	30.256 
05:45	37.6	37.6	37.6	92	35.5	0	0	---	0.00	30.259 
05:50	37.5	37.5	37.5	92	35.4	0	0	---	0.00	30.259 
05:55	37.5	37.5	37.5	92	35.4	0	0	---	0.00	30.259 
06:00	37.5	37.5	37.5	92	35.4	0	0	---	0.00	30.267 
06:05	37.5	37.5	37.5	92	35.4	0	0	---	0.00	30.267 
06:10	37.3	37.3	37.3	92	35.2	0	0	---	0.00	30.267 
06:15	37.3	37.3	37.3	92	35.2	0	0	---	0.00	30.273 
06:20	37.2	37.2	37.2	92	35.1	0	0	---	0.00	30.273 
06:25	37.0	37.0	37.0	92	34.9	0	0	---	0.00	30.273 
06:30	37.0	37.0	37.0	92	34.9	0	0	---	0.00	30.280 
06:35	37.2	37.2	37.2	92	35.1	0	0	---	0.00	30.280 
06:40	37.2	37.2	37.2	92	35.1	0	0	---	0.00	30.280 
06:45	37.3	37.3	37.3	92	35.2	0	0	---	0.00	30.287 
06:50	37.5	37.5	37.5	92	35.4	0	0	---	0.00	30.287 
06:55	37.5	37.5	37.5	92	35.4	0	0	---	0.00	30.287 
07:00	37.8	37.8	37.8	93	36.0	0	1	225	0.00	30.290 
07:05	37.9	37.9	37.9	93	36.1	0	0	---	0.00	30.290 
07:10	38.2	38.2	38.2	93	36.4	0	3	225	0.00	30.290 
07:15	38.3	38.3	38.3	92	36.2	0	2	225	0.00	30.298 
07:20	38.5	38.5	38.5	92	36.4	0	1	225	0.00	30.298 
07:25	38.6	38.6	38.6	92	36.5	0	1	225	0.00	30.298 
07:30	38.9	38.9	38.9	92	36.8	0	1	225	0.00	30.304 
07:35	39.2	39.2	39.2	91	36.8	0	0	---	0.00	30.304 
07:40	39.5	39.5	39.5	91	37.1	0	0	---	0.00	30.304 
07:45	39.8	39.8	39.8	90	37.1	0	2	225	0.00	30.312 
07:50	40.1	40.1	40.1	89	37.1	0	2	225	0.00	30.312 
07:55	40.1	40.1	40.1	86	36.3	0	3	225	0.00	30.312 
08:00	40.3	40.3	40.3	82	35.2	0	2	270	0.00	30.317 
08:05	40.5	40.5	40.5	77	33.9	1	3	292	0.00	30.317 
08:10	40.8	40.8	40.8	74	33.2	0	1	292	0.00	30.317 
08:15	41.3	41.3	41.3	72	33.0	0	1	292	0.00	30.319 
08:20	41.8	41.8	41.8	68	32.0	0	2	292	0.00	30.319 
08:25	42.2	42.2	42.2	68	32.4	0	2	292	0.00	30.319 
08:30	42.5	42.5	42.5	65	31.6	1	4	292	0.00	30.318 
08:35	42.9	42.9	42.9	61	30.4	0	2	45	0.00	30.318 
08:40	43.2	43.2	43.2	60	30.3	0	2	45	0.00	30.318 
08:45	43.6	43.6	43.6	61	31.0	0	1	45	0.00	30.319 
08:50	44.1	44.1	44.1	58	30.3	0	2	292	0.00	30.319 
08:55	44.1	44.1	44.1	57	29.9	1	3	292	0.00	30.319 
09:00	44.1	44.1	44.1	55	29.0	0	2	292	0.00	30.320 
09:05	44.5	44.5	44.5	55	29.3	0	2	292	0.00	30.320 
09:10	44.9	44.9	44.9	59	31.5	0	1	292	0.00	30.320 
09:15	45.2	45.2	45.2	55	30.0	1	3	292	0.00	30.326 
09:20	45.2	45.2	45.2	50	27.7	0	2	270	0.00	30.326 
09:25	45.4	45.4	45.4	51	28.3	1	4	315	0.00	30.326 
09:30	45.4	45.4	45.4	50	27.9	1	3	338	0.00	30.332 
09:35	45.7	45.7	45.7	45	25.6	1	3	338	0.00	30.332 
09:40	46.1	46.1	46.1	50	28.5	1	4	338	0.00	30.332 
09:45	46.5	46.5	46.5	45	26.3	0	2	22	0.00	30.329 
09:50	47.1	47.1	47.1	48	28.4	0	3	22	0.00	30.329 
09:55	46.7	46.7	46.7	40	23.7	1	3	248	0.00	30.329 
10:00	46.7	46.7	46.7	45	26.5	1	3	292	0.00	30.332 
10:05	46.7	46.7	46.7	40	23.7	1	4	315	0.00	30.332 
10:10	46.8	46.8	46.8	44	26.0	1	4	270	0.00	30.332 
10:15	47.0	47.0	47.0	45	26.8	1	4	270	0.00	30.334 
10:20	46.8	46.8	46.8	39	23.2	2	4	315	0.00	30.334 
10:25	47.1	47.1	47.1	42	25.2	1	4	315	0.00	30.334 
10:30	47.6	47.6	47.6	39	23.9	1	3	315	0.00	30.335 
10:35	47.7	47.7	47.7	39	24.0	1	5	270	0.00	30.335 
10:40	48.3	48.3	48.3	44	27.4	1	4	270	0.00	30.335 
10:45	48.3	48.3	48.3	40	25.1	1	4	315	0.00	30.335 
10:50	48.5	48.5	48.5	39	24.7	1	5	270	0.00	30.335 
10:55	48.6	48.6	48.6	37	23.5	2	4	270	0.00	30.335 
11:00	48.5	48.5	48.5	37	23.4	2	5	338	0.00	30.338 
11:05	48.6	48.6	48.6	43	27.1	2	4	315	0.00	30.338 
11:10	48.9	48.9	48.9	38	24.4	1	3	292	0.00	30.338 
11:15	48.9	48.9	48.9	39	25.0	2	6	315	0.00	30.335 
11:20	48.9	48.9	48.9	38	24.4	1	5	315	0.00	30.335 
11:25	48.9	48.9	48.9	36	23.1	2	5	315	0.00	30.335 
11:30	49.1	49.1	49.1	35	22.6	2	4	292	0.00	30.334 
11:35	49.2	49.2	49.2	38	24.7	2	6	292	0.00	30.334 
11:40	49.6	49.6	49.6	38	25.0	1	3	315	0.00	30.334 
11:45	50.4	50.4	50.4	41	27.6	1	4	315	0.00	30.333 
11:50	50.8	50.8	50.8	36	24.8	1	4	315	0.00	30.333 
11:55	51.0	51.0	51.0	35	24.3	1	4	315	0.00	30.333 
12:00	51.3	51.3	51.3	40	27.8	1	5	270	0.00	30.331 
12:05	51.0	51.0	51.0	35	24.3	1	4	270	0.00	30.331 
12:10	51.0	51.0	51.0	33	22.9	1	5	22	0.00	30.331 
12:15	51.1	51.1	51.1	35	24.4	2	5	0	0.00	30.331 
12:20	51.3	51.3	51.3	39	27.2	1	3	22	0.00	30.331 
12:25	51.6	51.6	51.6	37	26.2	1	4	22	0.00	30.331 
12:30	51.6	51.6	51.6	38	26.8	2	6	270	0.00	30.336 
12:35	51.4	51.4	51.4	37	26.0	2	7	292	0.00	30.336 
12:40	51.6	51.6	51.6	38	26.8	1	3	315	0.00	30.336 
12:45	51.7	51.7	51.7	39	27.6	1	3	292	0.00	30.338 
12:50	52.2	52.2	52.2	36	26.1	2	7	292	0.00	30.338 
12:55	52.3	52.3	52.3	35	25.5	2	5	248	0.00	30.338 
13:00	52.5	52.5	52.5	41	29.5	1	4	315	0.00	30.332 
13:05	52.3	52.3	52.3	38	27.5	1	5	315	0.00	30.332 
13:10	52.8	52.8	52.8	37	27.3	2	4	315	0.00	30.332 
13:15	52.6	52.6	52.6	35	25.7	2	3	315	0.00	30.330 
13:20	52.9	52.9	52.9	42	30.4	1	4	270	0.00	30.330 
13:25	53.2	53.2	53.2	41	30.1	1	3	315	0.00	30.330 
13:30	53.3	53.3	53.3	36	27.0	1	4	270	0.00	30.328 
13:35	53.1	53.1	53.1	36	26.9	3	6	270	0.00	30.328 
13:40	53.2	53.2	53.2	37	27.6	1	4	315	0.00	30.328 
13:45	53.1	53.1	53.1	39	28.8	2	5	338	0.00	30.328 
13:50	53.2	53.2	53.2	36	26.9	2	4	338	0.00	30.328 
13:55	53.2	53.2	53.2	35	26.3	2	4	315	0.00	30.328 
14:00	53.2	53.2	53.2	37	27.6	1	6	292	0.00	30.327 
14:05	53.3	53.3	53.3	39	29.0	2	5	292	0.00	30.327 
14:10	53.6	53.6	53.6	36	27.3	1	4	248	0.00	30.327 
14:15	53.8	53.8	53.8	36	27.5	2	4	315	0.00	30.326 
14:20	53.9	53.9	53.9	39	29.5	1	5	338	0.00	30.326 
14:25	53.9	53.9	53.9	35	26.9	1	4	0	0.00	30.326 
14:30	54.1	54.1	54.1	37	28.4	3	9	270	0.00	30.326 
14:35	54.5	54.5	54.5	36	28.1	1	3	315	0.00	30.326 
14:40	54.1	54.1	54.1	34	26.4	3	6	270	0.00	30.326 
14:45	53.9	53.9	53.9	35	26.9	2	4	315	0.00	30.326 
14:50	53.9	53.9	53.9	35	26.9	1	4	292	0.00	30.326 
14:55	54.4	54.4	54.4	36	28.0	2	7	292	0.00	30.326 
15:00	54.5	54.5	54.5	36	28.1	1	4	338	0.00	30.318 
15:05	54.8	54.8	54.8	36	28.4	3	6	270	0.00	30.318 
15:10	55.0	55.0	55.0	36	28.5	1	4	292	0.00	30.318 
15:15	54.2	54.2	54.2	35	27.2	1	4	248	0.00	30.324 
15:20	54.5	54.5	54.5	35	27.4	1	2	315	0.00	30.324 
15:25	54.8	54.8	54.8	34	27.0	1	4	338	0.00	30.324 
15:30	55.1	55.1	55.1	34	27.2	2	5	338	0.00	30.318 
15:35	55.1	55.1	55.1	38	30.0	1	3	338	0.00	30.318 
15:40	55.4	55.4	55.4	31	25.3	2	4	315	0.00	30.318 
15:45	55.6	55.6	55.6	32	26.2	2	5	315	0.00	30.317 
15:50	55.6	55.6	55.6	34	27.7	2	5	270	0.00	30.317 
15:55	55.6	55.6	55.6	40	31.7	1	4	270	0.00	30.317 
16:00	55.3	55.3	55.3	35	28.1	1	3	270	0.00	30.314 
16:05	55.3	55.3	55.3	36	28.8	2	4	292	0.00	30.314 
16:10	55.1	55.1	55.1	36	28.6	2	4	292	0.00	30.314 
16:15	55.7	55.7	55.7	36	29.2	3	6	270	0.00	30.311 
16:20	55.7	55.7	55.7	35	28.5	2	7	315	0.00	30.311 
16:25	55.6	55.6	55.6	35	28.4	3	6	292	0.00	30.311 
16:30	55.3	55.3	55.3	35	28.1	2	4	270	0.00	30.313 
16:35	54.5	54.5	54.5	35	27.4	1	4	292	0.00	30.313 
16:40	54.2	54.2	54.2	39	29.8	0	3	292	0.00	30.313 
16:45	54.7	54.7	54.7	37	28.9	1	4	292	0.00	30.308 
16:50	54.2	54.2	54.2	36	27.8	1	3	0	0.00	30.308 
16:55	54.1	54.1	54.1	35	27.1	1	4	315	0.00	30.308 
17:00	55.1	55.1	55.1	39	30.6	1	3	315	0.00	30.309 
17:05	55.9	55.9	55.9	37	30.0	2	5	292	0.00	30.309 
17:10	55.6	55.6	55.6	35	28.4	2	5	270	0.00	30.309 
17:15	55.1	55.1	55.1	36	28.6	2	4	338	0.00	30.312 
17:20	55.6	55.6	55.6	38	30.4	2	4	270	0.00	30.312 
17:25	56.5	56.5	56.5	35	29.2	2	6	270	0.00	30.312 
17:30	56.7	56.7	56.7	32	27.2	2	4	292	0.00	30.311 
17:35	56.6	56.6	56.6	33	27.8	1	5	315	0.00	30.311 
17:40	56.3	56.3	56.3	34	28.3	1	4	338	0.00	30.311 
17:45	55.6	55.6	55.6	31	25.5	1	4	0	0.00	30.314 
17:50	55.3	55.3	55.3	33	26.7	1	4	315	0.00	30.314 
17:55	55.7	55.7	55.7	34	27.8	1	3	315	0.00	30.314 
18:00	55.6	55.6	55.6	34	27.7	2	5	270	0.00	30.314 
18:05	55.4	55.4	55.4	32	26.0	3	10	270	0.00	30.314 
18:10	55.4	55.4	55.4	33	26.8	1	6	292	0.00	30.314 
18:15	55.3	55.3	55.3	35	28.1	2	6	270	0.00	30.321 
18:20	55.1	55.1	55.1	33	26.5	1	3	315	0.00	30.321 
18:25	55.1	55.1	55.1	32	25.8	1	3	315	0.00	30.321 
18:30	55.1	55.1	55.1	31	25.0	2	5	292	0.00	30.323 
18:35	54.8	54.8	54.8	32	25.5	1	4	292	0.00	30.323 
18:40	54.8	54.8	54.8	33	26.3	1	3	338	0.00	30.323 
18:45	54.7	54.7	54.7	30	23.9	2	4	270	0.00	30.328 
18:50	54.5	54.5	54.5	31	24.5	1	5	292	0.00	30.328 
18:55	54.4	54.4	54.4	31	24.4	1	5	315	0.00	30.328 
19:00	54.2	54.2	54.2	33	25.7	1	4	292	0.00	30.329 
19:05	53.9	53.9	53.9	34	26.2	1	5	315	0.00	30.329 
19:10	53.8	53.8	53.8	34	26.1	1	5	22	0.00	30.329 
19:15	53.6	53.6	53.6	32	24.5	2	5	338	0.00	30.328 
19:20	53.5	53.5	53.5	33	25.1	1	4	338	0.00	30.328 
19:25	53.3	53.3	53.3	35	26.4	1	5	292	0.00	30.328 
19:30	52.9	52.9	52.9	33	24.6	1	3	292	0.00	30.330 
19:35	52.5	52.5	52.5	33	24.2	1	4	292	0.00	30.330 
19:40	52.5	52.5	52.5	34	25.0	1	3	270	0.00	30.330 
19:45	52.6	52.6	52.6	35	25.7	0	2	270	0.00	30.332 
19:50	52.5	52.5	52.5	37	27.0	0	3	270	0.00	30.332 
19:55	52.0	52.0	52.0	36	25.9	0	4	270	0.00	30.332 
20:00	51.7	51.7	51.7	35	24.9	0	3	270	0.00	30.332 
20:05	51.6	51.6	51.6	35	24.9	1	3	270	0.00	30.332 
20:10	51.3	51.3	51.3	36	25.3	0	3	315	0.00	30.332 
20:15	51.0	51.0	51.0	36	25.0	1	2	315	0.00	30.333 
20:20	50.5	50.5	50.5	36	24.6	1	3	315	0.00	30.333 
20:25	50.2	50.2	50.2	37	24.9	0	2	0	0.00	30.333 
20:30	49.9	49.9	49.9	38	25.3	0	1	0	0.00	30.333 
20:35	49.5	49.5	49.5	39	25.6	0	1	0	0.00	30.333 
20:40	49.2	49.2	49.2	40	25.9	0	1	0	0.00	30.333 
20:45	48.9	48.9	48.9	41	26.2	0	1	22	0.00	30.342 
20:50	48.6	48.6	48.6	41	26.0	0	0	---	0.00	30.342 
20:55	48.2	48.2	48.2	43	26.8	0	0	---	0.00	30.342 
21:00	47.7	47.7	47.7	44	26.9	0	0	---	0.00	30.344 
21:05	47.3	47.3	47.3	43	25.9	0	1	22	0.00	30.344 
21:10	47.3	47.3	47.3	44	26.5	0	0	---	0.00	30.344 
21:15	47.0	47.0	47.0	45	26.8	0	0	---	0.00	30.340 
21:20	46.7	46.7	46.7	45	26.5	0	0	---	0.00	30.340 
21:25	46.2	46.2	46.2	47	27.1	0	0	---	0.00	30.340 
21:30	46.0	46.0	46.0	46	26.4	0	0	---	0.00	30.345 
21:35	45.7	45.7	45.7	48	27.1	0	0	---	0.00	30.345 
21:40	45.4	45.4	45.4	47	26.4	0	0	---	0.00	30.345 
21:45	45.1	45.1	45.1	49	27.1	0	0	---	0.00	30.349 
21:50	44.6	44.6	44.6	49	26.6	0	0	---	0.00	30.349 
21:55	44.2	44.2	44.2	50	26.8	0	0	---	0.00	30.349 
22:00	43.9	43.9	43.9	51	27.0	0	0	---	0.00	30.349 
22:05	43.5	43.5	43.5	53	27.5	0	0	---	0.00	30.349 
22:10	43.1	43.1	43.1	53	27.1	0	0	---	0.00	30.349 
22:15	42.6	42.6	42.6	55	27.6	0	0	---	0.00	30.356 
22:20	42.3	42.3	42.3	56	27.7	0	0	---	0.00	30.356 
22:25	42.1	42.1	42.1	57	28.0	0	0	---	0.00	30.356 
22:30	41.8	41.8	41.8	58	28.1	0	0	---	0.00	30.362 
22:35	41.5	41.5	41.5	58	27.8	0	0	---	0.00	30.362 
22:40	41.1	41.1	41.1	61	28.7	0	0	---	0.00	30.362 
22:45	40.6	40.6	40.6	62	28.6	0	0	---	0.00	30.363 
22:50	40.2	40.2	40.2	63	28.6	0	0	---	0.00	30.363 
22:55	39.9	39.9	39.9	65	29.1	0	0	---	0.00	30.363 
23:00	39.6	39.6	39.6	66	29.2	0	0	---	0.00	30.365 
23:05	39.3	39.3	39.3	66	28.9	0	0	---	0.00	30.365 
23:10	39.1	39.1	39.1	67	29.1	0	0	---	0.00	30.365 
23:15	38.9	38.9	38.9	69	29.6	0	0	---	0.00	30.362 
23:20	38.8	38.8	38.8	69	29.5	0	0	---	0.00	30.362 
23:25	38.5	38.5	38.5	70	29.6	0	0	---	0.00	30.362 
23:30	38.3	38.3	38.3	70	29.4	0	0	---	0.00	30.368 
23:35	38.2	38.2	38.2	70	29.3	0	0	---	0.00	30.368 
23:40	37.9	37.9	37.9	72	29.7	0	0	---	0.00	30.368 
23:45	37.8	37.8	37.8	73	29.9	0	0	---	0.00	30.364 
23:50	37.5	37.5	37.5	74	30.0	0	0	---	0.00	30.364 
23:55	37.3	37.3	37.3	74	29.8	0	0	---	0.00	30.364 

CoCoRaHS
IN-AL-39
A2 Web Hosting
Creative Commons License
GoDaddy
search engine by freefind advanced

loaded 2018-11-15 14:30:09 • last modified 2010-11-18 10:43:29
Privacy PolicyDisclaimer
• wx.awcolley.com is powered by PmWiki v.2002016 •
• all content (unless otherwise noted) © 2018 A W Colley